createdAt,value
2022-12-20T00:02:08.309Z,39.33
2022-12-20T00:07:07.650Z,34.90
2022-12-20T00:12:09.441Z,34.73
2022-12-20T00:17:13.145Z,44.90
2022-12-20T00:22:12.525Z,38.95
2022-12-20T00:27:13.625Z,38.70
2022-12-20T00:32:13.082Z,35.70
2022-12-20T00:37:11.786Z,39.13
2022-12-20T00:42:10.764Z,37.77
2022-12-20T00:47:11.442Z,33.87
2022-12-20T00:52:10.244Z,34.67
2022-12-20T00:57:09.147Z,37.50
2022-12-20T01:02:08.038Z,36.43
2022-12-20T01:07:08.874Z,35.43
2022-12-20T01:12:08.204Z,33.57
2022-12-20T01:17:07.306Z,39.40
2022-12-20T01:22:06.150Z,34.70
2022-12-20T01:27:06.544Z,34.80
2022-12-20T01:32:05.731Z,39.70
2022-12-20T01:37:04.677Z,37.80
2022-12-20T01:42:05.376Z,34.67
2022-12-20T01:47:04.594Z,34.40
2022-12-20T01:52:07.554Z,34.87
2022-12-20T01:57:12.665Z,30.13
2022-12-20T02:02:13.372Z,30.60
2022-12-20T02:07:15.137Z,40.60
2022-12-20T02:12:18.985Z,34.97
2022-12-20T02:17:30.842Z,35.60
2022-12-20T02:22:46.036Z,37.40
2022-12-20T02:27:55.746Z,33.03
2022-12-20T02:33:02.289Z,39.83
2022-12-20T02:38:06.222Z,38.00
2022-12-20T02:43:29.037Z,35.20
2022-12-20T02:48:33.609Z,41.13
2022-12-20T02:53:33.524Z,38.03
2022-12-20T02:58:39.498Z,36.47
2022-12-20T03:03:40.388Z,38.00
2022-12-20T03:08:39.399Z,34.27
2022-12-20T03:13:38.351Z,35.93
2022-12-20T03:18:42.082Z,38.57
2022-12-20T03:23:41.066Z,39.63
2022-12-20T03:28:39.889Z,37.97
2022-12-20T03:33:42.076Z,36.40
2022-12-20T03:38:43.336Z,41.80
2022-12-20T03:43:42.319Z,41.77
2022-12-20T03:48:42.806Z,41.50
2022-12-20T03:53:41.600Z,39.93
2022-12-20T03:58:40.844Z,58.17
2022-12-20T04:03:40.904Z,46.63
2022-12-20T04:08:41.087Z,44.80
2022-12-20T04:13:41.795Z,39.53
2022-12-20T04:18:42.046Z,44.73
2022-12-20T04:23:44.605Z,49.17
2022-12-20T04:28:44.403Z,42.77
2022-12-20T04:33:43.921Z,44.87
2022-12-20T04:38:45.396Z,43.80
2022-12-20T04:43:44.474Z,43.40
2022-12-20T04:48:59.825Z,47.33
2022-12-20T04:54:01.637Z,42.97
2022-12-20T04:59:20.795Z,42.30
2022-12-20T05:04:23.080Z,44.03
2022-12-20T05:09:23.476Z,45.03
2022-12-20T05:14:23.607Z,40.60
2022-12-20T05:19:22.728Z,45.83
2022-12-20T05:24:39.196Z,52.33
2022-12-20T05:30:02.264Z,54.17
2022-12-20T05:35:01.621Z,52.53
2022-12-20T05:40:01.863Z,56.77
2022-12-20T05:45:02.919Z,50.60
2022-12-20T05:50:06.180Z,49.93
2022-12-20T05:55:11.728Z,48.80
2022-12-20T06:00:15.658Z,48.50
2022-12-20T06:05:15.723Z,50.90
2022-12-20T06:10:14.905Z,45.63
2022-12-20T06:15:25.229Z,45.93
2022-12-20T06:20:24.806Z,48.87
2022-12-20T06:25:24.453Z,45.40
2022-12-20T06:30:31.861Z,53.07
2022-12-20T06:35:42.123Z,56.97
2022-12-20T06:40:41.165Z,61.93
2022-12-20T06:45:42.541Z,52.70
2022-12-20T06:50:43.828Z,52.67
2022-12-20T06:55:43.230Z,52.80
2022-12-20T07:00:43.910Z,57.73
2022-12-20T07:05:42.947Z,55.97
2022-12-20T07:10:42.007Z,51.20
2022-12-20T07:15:41.025Z,52.13
2022-12-20T07:20:41.310Z,47.63
2022-12-20T07:25:40.273Z,56.43
2022-12-20T07:30:39.283Z,51.00
2022-12-20T07:35:38.330Z,51.60
2022-12-20T07:40:42.304Z,54.30
2022-12-20T07:45:41.447Z,53.23
2022-12-20T07:50:40.691Z,53.20
2022-12-20T07:56:03.093Z,52.23
2022-12-20T08:01:10.596Z,54.07
2022-12-20T08:06:10.635Z,56.07
2022-12-20T08:11:35.937Z,60.20
2022-12-20T08:16:34.947Z,50.13
2022-12-20T08:21:34.203Z,62.00
2022-12-20T08:26:40.626Z,58.63
2022-12-20T08:31:44.431Z,61.97
2022-12-20T08:36:46.547Z,55.47
2022-12-20T08:41:46.726Z,57.63
2022-12-20T08:46:46.089Z,51.67
2022-12-20T08:51:44.992Z,60.20
2022-12-20T08:57:04.316Z,60.33
2022-12-20T09:02:32.726Z,61.77
2022-12-20T09:07:57.484Z,62.70
2022-12-20T09:13:18.354Z,79.10
2022-12-20T09:18:18.027Z,67.32
2022-12-20T09:23:16.913Z,69.83
2022-12-20T09:28:17.487Z,64.78
2022-12-20T09:33:16.494Z,50.27
2022-12-20T09:38:27.383Z,51.53
2022-12-20T09:43:57.306Z,57.57
2022-12-20T09:49:17.012Z,62.22
2022-12-20T09:54:25.047Z,54.53
2022-12-20T09:59:25.964Z,55.05
2022-12-20T10:04:27.260Z,48.28
2022-12-20T10:09:56.849Z,47.67
2022-12-20T10:15:11.447Z,45.05
2022-12-20T10:20:30.083Z,47.72
2022-12-20T10:25:32.798Z,53.00
2022-12-20T10:30:35.736Z,45.33
2022-12-20T10:35:40.623Z,50.38
2022-12-20T10:46:04.949Z,48.58
2022-12-20T10:51:16.544Z,36.42
2022-12-20T10:56:21.656Z,42.90
2022-12-20T11:01:23.971Z,37.92
2022-12-20T11:06:25.629Z,43.33
2022-12-20T11:11:26.796Z,47.05
2022-12-20T11:16:34.950Z,45.30
2022-12-20T11:21:43.481Z,46.85
2022-12-20T11:26:59.008Z,46.28
2022-12-20T11:32:07.582Z,48.83
2022-12-20T11:37:20.144Z,42.60
2022-12-20T11:42:26.141Z,52.67
2022-12-20T11:47:46.324Z,47.90
2022-12-20T11:52:49.170Z,45.50
2022-12-20T11:58:17.411Z,46.88
2022-12-20T12:03:24.162Z,46.20
2022-12-20T12:08:31.649Z,50.33
2022-12-20T12:13:42.032Z,42.58
2022-12-20T12:18:43.596Z,52.15
2022-12-20T12:24:11.803Z,49.17
2022-12-20T12:29:22.751Z,52.75
2022-12-20T12:34:48.430Z,46.35
2022-12-20T12:40:27.815Z,60.58
2022-12-20T12:45:48.226Z,58.60
2022-12-20T12:50:51.657Z,59.90
2022-12-20T13:00:54.717Z,61.08
2022-12-20T13:06:21.687Z,59.08
2022-12-20T13:11:47.139Z,60.25
2022-12-20T13:17:11.414Z,59.90
2022-12-20T13:22:26.585Z,60.35
2022-12-20T13:28:11.838Z,64.95
2022-12-20T13:33:48.036Z,64.57
2022-12-20T13:39:52.764Z,62.95
2022-12-20T13:44:54.643Z,70.28
2022-12-20T13:49:56.600Z,58.45
2022-12-20T13:55:00.916Z,76.78
2022-12-20T14:00:09.275Z,58.90
2022-12-20T14:05:18.888Z,65.78
2022-12-20T14:10:22.217Z,60.70
2022-12-20T14:15:30.291Z,57.95
2022-12-20T14:20:35.177Z,58.53
2022-12-20T14:25:44.244Z,63.58
2022-12-20T14:30:46.183Z,62.55
2022-12-20T14:35:49.532Z,58.70
2022-12-20T14:40:56.100Z,65.72
2022-12-20T14:46:10.010Z,59.17
2022-12-20T14:51:10.911Z,55.22
2022-12-20T14:56:16.056Z,63.28
2022-12-20T15:01:47.110Z,69.55
2022-12-20T15:06:50.327Z,94.68
2022-12-20T15:11:51.735Z,96.15
2022-12-20T15:16:50.883Z,104.88
2022-12-20T15:21:51.824Z,77.05
2022-12-20T15:27:03.600Z,142.98
2022-12-20T15:44:32.585Z,68.00
2022-12-20T15:55:01.432Z,62.97
2022-12-20T16:00:02.155Z,64.50
2022-12-20T16:56:32.083Z,72.13
2022-12-20T17:01:37.182Z,69.25
2022-12-20T17:06:36.238Z,60.63
2022-12-20T17:11:36.791Z,67.47
2022-12-20T17:16:35.697Z,66.63
2022-12-20T17:26:58.174Z,67.27
2022-12-20T17:31:57.557Z,66.32
2022-12-20T17:36:58.108Z,78.23
2022-12-20T17:41:58.506Z,72.97
2022-12-20T17:46:58.565Z,66.63
2022-12-20T17:51:57.436Z,66.33
2022-12-20T17:57:00.594Z,56.80
2022-12-20T18:01:59.662Z,56.10
2022-12-20T18:07:02.375Z,59.37
2022-12-20T18:12:02.821Z,99.40
2022-12-20T18:17:01.851Z,62.33
2022-12-20T18:22:04.641Z,62.07
2022-12-20T18:27:06.542Z,65.83
2022-12-20T18:32:08.292Z,78.20
2022-12-20T18:37:11.032Z,64.13
2022-12-20T18:42:11.374Z,63.30
2022-12-20T18:47:11.341Z,69.53
2022-12-20T18:52:12.419Z,55.43
2022-12-20T18:57:12.904Z,61.27
2022-12-20T19:02:14.700Z,59.23
2022-12-20T19:07:13.836Z,61.03
2022-12-20T19:12:14.189Z,58.20
2022-12-20T19:17:15.210Z,57.73
2022-12-20T19:22:14.477Z,53.57
2022-12-20T19:27:18.569Z,57.83
2022-12-20T19:32:18.599Z,62.57
2022-12-20T19:37:18.636Z,63.23
2022-12-20T19:42:26.364Z,60.67
2022-12-20T19:47:26.690Z,62.27
2022-12-20T19:52:29.097Z,59.03
2022-12-20T19:57:29.726Z,60.17
2022-12-20T20:02:29.318Z,60.23
2022-12-20T20:07:31.493Z,67.47
2022-12-20T20:12:32.083Z,87.63
2022-12-20T20:17:32.041Z,74.90
2022-12-20T20:22:33.751Z,65.30
2022-12-20T20:27:37.016Z,69.57
2022-12-20T20:32:48.529Z,63.78
2022-12-20T20:37:59.318Z,63.67
2022-12-20T20:43:07.040Z,75.00
2022-12-20T20:48:09.387Z,75.37
2022-12-20T20:53:17.418Z,67.70
2022-12-20T20:58:18.091Z,69.63
2022-12-20T21:03:20.598Z,70.87
2022-12-20T21:08:23.652Z,70.17
2022-12-20T21:13:34.220Z,65.67
2022-12-20T21:18:35.829Z,67.67
2022-12-20T21:23:36.708Z,66.77
2022-12-20T21:28:37.349Z,68.83
2022-12-20T21:33:36.311Z,69.83
2022-12-20T21:38:35.833Z,64.27
2022-12-20T21:44:07.626Z,67.80
2022-12-20T21:49:06.458Z,70.87
2022-12-20T21:54:05.508Z,60.63
2022-12-20T21:59:06.242Z,61.93
2022-12-20T22:04:07.148Z,63.73
2022-12-20T22:09:07.910Z,59.97
2022-12-20T22:14:08.640Z,60.93
2022-12-20T22:19:09.126Z,64.47
2022-12-20T22:24:08.803Z,59.70
2022-12-20T22:29:09.787Z,63.43
2022-12-20T22:34:08.801Z,55.03
2022-12-20T22:39:07.706Z,51.03
2022-12-20T22:44:07.355Z,51.23
2022-12-20T22:49:07.763Z,51.27
2022-12-20T22:54:06.683Z,55.00
2022-12-20T22:59:06.509Z,55.17
2022-12-20T23:04:05.462Z,53.43
2022-12-20T23:09:05.953Z,44.33
2022-12-20T23:14:22.926Z,37.63
2022-12-20T23:19:21.864Z,42.23
2022-12-20T23:24:22.082Z,39.53
2022-12-20T23:29:20.841Z,42.30
2022-12-20T23:34:19.971Z,45.47
2022-12-20T23:39:18.803Z,44.17
2022-12-20T23:44:18.982Z,45.27
2022-12-20T23:49:18.042Z,52.27
2022-12-20T23:54:19.663Z,51.00
2022-12-20T23:59:19.809Z,56.27
